createdAt,value
2019-03-23T00:00:09.933Z,73.90
2019-03-23T00:02:39.333Z,73.80
2019-03-23T00:05:08.753Z,73.60
2019-03-23T00:07:38.092Z,74.10
2019-03-23T00:10:08.765Z,74.10
2019-03-23T00:12:38.099Z,74.10
2019-03-23T00:15:08.725Z,73.90
2019-03-23T00:17:37.977Z,74.50
2019-03-23T00:20:07.585Z,74.30
2019-03-23T00:22:36.902Z,74.50
2019-03-23T00:25:06.614Z,74.20
2019-03-23T00:27:35.953Z,74.40
2019-03-23T00:30:06.667Z,74.60
2019-03-23T00:32:36.049Z,74.30
2019-03-23T00:35:06.476Z,74.10
2019-03-23T00:37:35.783Z,74.20
2019-03-23T00:40:05.990Z,74.50
2019-03-23T00:42:35.328Z,74.10
2019-03-23T00:45:05.437Z,74.10
2019-03-23T00:47:34.738Z,74.00
2019-03-23T00:50:04.582Z,74.30
2019-03-23T00:52:33.949Z,74.00
2019-03-23T00:55:03.353Z,74.10
2019-03-23T00:57:32.602Z,74.00
2019-03-23T01:00:01.888Z,74.10
2019-03-23T01:02:31.219Z,74.30
2019-03-23T01:05:00.470Z,74.50
2019-03-23T01:07:30.764Z,74.30
2019-03-23T01:10:00.041Z,74.40
2019-03-23T01:12:29.278Z,74.40
2019-03-23T01:14:58.653Z,74.50
2019-03-23T01:17:27.897Z,74.30
2019-03-23T01:19:57.177Z,74.40
2019-03-23T01:22:26.453Z,74.30
2019-03-23T01:24:55.692Z,74.20
2019-03-23T01:27:24.948Z,74.20
2019-03-23T01:29:54.225Z,74.20
2019-03-23T01:32:23.469Z,74.20
2019-03-23T01:34:52.726Z,73.80
2019-03-23T01:37:22.661Z,73.80
2019-03-23T01:39:51.902Z,73.70
2019-03-23T01:42:21.153Z,73.80
2019-03-23T01:44:50.421Z,73.80
2019-03-23T01:47:19.653Z,73.90
2019-03-23T01:49:48.934Z,74.00
2019-03-23T01:52:18.581Z,74.10
2019-03-23T01:54:47.816Z,74.30
2019-03-23T01:57:17.129Z,74.20
2019-03-23T01:59:46.385Z,74.50
2019-03-23T02:02:15.639Z,74.50
2019-03-23T02:04:44.893Z,74.70
2019-03-23T02:07:14.368Z,74.70
2019-03-23T02:09:43.689Z,74.70
2019-03-23T02:12:13.055Z,74.80
2019-03-23T02:14:42.361Z,74.80
2019-03-23T02:17:11.589Z,74.70
2019-03-23T02:19:40.837Z,74.90
2019-03-23T02:22:10.275Z,74.90
2019-03-23T02:24:39.558Z,75.00
2019-03-23T02:27:08.789Z,75.00
2019-03-23T02:29:38.045Z,74.90
2019-03-23T02:32:07.313Z,75.00
2019-03-23T02:34:36.562Z,75.10
2019-03-23T02:37:05.897Z,75.10
2019-03-23T02:39:37.981Z,75.10
2019-03-23T02:42:07.224Z,75.10
2019-03-23T02:44:36.483Z,75.00
2019-03-23T02:47:05.745Z,75.20
2019-03-23T02:49:35.054Z,74.80
2019-03-23T02:52:04.415Z,75.20
2019-03-23T02:54:33.721Z,75.20
2019-03-23T02:57:03.041Z,75.40
2019-03-23T02:59:32.304Z,75.40
2019-03-23T03:02:01.549Z,75.40
2019-03-23T03:04:30.862Z,75.40
2019-03-23T03:07:00.154Z,75.20
2019-03-23T03:09:29.404Z,75.30
2019-03-23T03:11:58.841Z,75.40
2019-03-23T03:14:28.128Z,75.60
2019-03-23T03:16:57.354Z,75.70
2019-03-23T03:19:26.626Z,75.60
2019-03-23T03:21:55.888Z,75.80
2019-03-23T03:24:25.135Z,75.60
2019-03-23T03:26:54.374Z,75.60
2019-03-23T03:29:23.646Z,75.80
2019-03-23T03:31:52.903Z,75.80
2019-03-23T03:34:22.239Z,76.10
2019-03-23T03:36:51.538Z,76.10
2019-03-23T03:39:20.797Z,76.10
2019-03-23T03:41:50.040Z,76.00
2019-03-23T03:44:19.350Z,76.00
2019-03-23T03:46:48.594Z,75.90
2019-03-23T03:49:17.849Z,76.00
2019-03-23T03:51:47.109Z,75.80
2019-03-23T03:54:16.350Z,75.90
2019-03-23T03:56:45.605Z,76.30
2019-03-23T03:59:14.949Z,76.10
2019-03-23T04:01:44.192Z,76.40
2019-03-23T04:04:13.516Z,77.00
2019-03-23T04:06:42.790Z,76.90
2019-03-23T04:09:12.041Z,77.30
2019-03-23T04:11:41.329Z,77.20
2019-03-23T04:14:10.606Z,77.20
2019-03-23T04:16:39.853Z,77.80
2019-03-23T04:19:11.229Z,78.00
2019-03-23T04:21:40.494Z,78.10
2019-03-23T04:24:09.775Z,78.10
2019-03-23T04:26:39.478Z,78.10
2019-03-23T04:29:08.985Z,78.10
2019-03-23T04:31:38.217Z,78.40
2019-03-23T04:34:07.597Z,78.20
2019-03-23T04:36:36.888Z,78.50
2019-03-23T04:39:07.262Z,78.60
2019-03-23T04:41:36.582Z,78.80
2019-03-23T04:44:05.842Z,78.90
2019-03-23T04:46:35.081Z,79.60
2019-03-23T04:49:04.351Z,79.20
2019-03-23T04:51:33.648Z,79.50
2019-03-23T04:54:02.884Z,79.80
2019-03-23T04:56:32.133Z,80.00
2019-03-23T04:59:01.410Z,80.90
2019-03-23T05:01:30.645Z,80.30
2019-03-23T05:03:59.917Z,80.50
2019-03-23T05:06:29.169Z,80.50
2019-03-23T05:08:58.421Z,80.70
2019-03-23T05:11:27.688Z,80.90
2019-03-23T05:13:56.932Z,80.90
2019-03-23T05:16:26.177Z,81.00
2019-03-23T05:18:55.437Z,81.70
2019-03-23T05:21:24.705Z,81.80
2019-03-23T05:23:53.967Z,81.20
2019-03-23T05:26:23.201Z,81.50
2019-03-23T05:28:52.567Z,81.50
2019-03-23T05:31:21.881Z,81.40
2019-03-23T05:33:51.225Z,81.40
2019-03-23T05:36:20.505Z,82.20
2019-03-23T05:38:49.761Z,81.50
2019-03-23T05:41:19.021Z,81.60
2019-03-23T05:43:48.316Z,81.80
2019-03-23T05:46:17.653Z,81.80
2019-03-23T05:48:46.893Z,81.90
2019-03-23T05:51:16.169Z,81.70
2019-03-23T05:53:45.872Z,81.90
2019-03-23T05:56:15.204Z,81.40
2019-03-23T05:58:44.447Z,81.50
2019-03-23T06:01:13.739Z,82.00
2019-03-23T06:03:43.021Z,81.30
2019-03-23T06:06:12.292Z,81.90
2019-03-23T06:08:41.533Z,81.90
2019-03-23T06:11:10.866Z,82.00
2019-03-23T06:13:40.280Z,81.90
2019-03-23T06:16:09.513Z,81.80
2019-03-23T06:18:38.755Z,81.80
2019-03-23T06:21:08.022Z,81.80
2019-03-23T06:23:37.285Z,82.00
2019-03-23T06:26:06.602Z,82.10
2019-03-23T06:28:35.867Z,82.20
2019-03-23T06:31:05.189Z,82.30
2019-03-23T06:33:34.525Z,82.10
2019-03-23T06:36:03.805Z,82.00
2019-03-23T06:38:33.060Z,81.80
2019-03-23T06:41:02.301Z,82.20
2019-03-23T06:43:31.589Z,82.10
2019-03-23T06:46:00.847Z,82.10
2019-03-23T06:48:30.153Z,82.30
2019-03-23T06:50:59.455Z,83.10
2019-03-23T06:53:28.705Z,82.20
2019-03-23T06:55:57.983Z,82.20
2019-03-23T06:58:27.263Z,82.00
2019-03-23T07:00:56.609Z,82.20
2019-03-23T07:03:25.850Z,82.20
2019-03-23T07:05:55.138Z,82.30
2019-03-23T07:08:31.990Z,82.50
2019-03-23T07:10:55.408Z,82.50
2019-03-23T07:13:24.677Z,82.40
2019-03-23T07:15:53.925Z,82.60
2019-03-23T07:18:25.588Z,82.70
2019-03-23T07:20:54.890Z,82.70
2019-03-23T07:23:24.142Z,83.40
2019-03-23T07:25:53.688Z,82.80
2019-03-23T07:28:22.949Z,82.80
2019-03-23T07:30:52.236Z,83.00
2019-03-23T07:33:21.514Z,83.10
2019-03-23T07:35:50.808Z,83.20
2019-03-23T07:38:20.050Z,83.20
2019-03-23T07:40:49.294Z,83.30
2019-03-23T07:43:18.632Z,83.50
2019-03-23T07:45:47.982Z,83.40
2019-03-23T07:48:17.234Z,83.40
2019-03-23T07:50:46.533Z,83.50
2019-03-23T07:53:15.789Z,83.40
2019-03-23T07:55:45.035Z,83.40
2019-03-23T07:58:14.317Z,83.40
2019-03-23T08:00:43.557Z,83.40
2019-03-23T08:03:12.933Z,83.50
2019-03-23T08:05:42.290Z,83.80
2019-03-23T08:08:11.593Z,83.70
2019-03-23T08:10:40.849Z,83.60
2019-03-23T08:13:10.185Z,83.50
2019-03-23T08:15:39.567Z,83.50
2019-03-23T08:18:08.920Z,83.40
2019-03-23T08:20:38.203Z,83.80
2019-03-23T08:23:07.456Z,83.50
2019-03-23T08:25:36.701Z,83.50
2019-03-23T08:28:05.985Z,83.80
2019-03-23T08:30:35.258Z,83.60
2019-03-23T08:33:04.579Z,83.50
2019-03-23T08:35:33.856Z,83.60
2019-03-23T08:38:03.084Z,83.40
2019-03-23T08:40:32.335Z,83.50
2019-03-23T08:43:04.445Z,83.50
2019-03-23T08:45:33.685Z,83.50
2019-03-23T08:48:02.977Z,83.40
2019-03-23T08:50:32.293Z,83.20
2019-03-23T08:53:01.537Z,83.30
2019-03-23T08:55:30.794Z,83.00
2019-03-23T08:58:00.058Z,82.90
2019-03-23T09:00:29.293Z,82.80
2019-03-23T09:02:58.546Z,82.90
2019-03-23T09:05:27.819Z,82.80
2019-03-23T09:07:57.089Z,82.70
2019-03-23T09:10:26.869Z,82.50
2019-03-23T09:12:56.133Z,81.50
2019-03-23T09:15:25.621Z,82.20
2019-03-23T09:17:55.066Z,82.00
2019-03-23T09:20:24.393Z,82.40
2019-03-23T09:22:55.701Z,82.00
2019-03-23T09:25:25.077Z,81.30
2019-03-23T09:27:54.411Z,82.00
2019-03-23T09:30:23.751Z,82.20
2019-03-23T09:32:53.020Z,82.00
2019-03-23T09:35:22.281Z,82.10
2019-03-23T09:37:53.753Z,82.00
2019-03-23T09:40:23.052Z,82.00
2019-03-23T09:42:52.466Z,81.60
2019-03-23T09:45:21.704Z,81.40
2019-03-23T09:47:50.983Z,81.40
2019-03-23T09:50:20.277Z,81.10
2019-03-23T09:52:49.779Z,81.10
2019-03-23T09:55:19.001Z,80.70
2019-03-23T09:57:49.547Z,80.60
2019-03-23T10:00:18.818Z,80.20
2019-03-23T10:02:48.081Z,80.40
2019-03-23T10:05:17.383Z,80.40
2019-03-23T10:07:49.935Z,80.40
2019-03-23T10:10:22.057Z,79.90
2019-03-23T10:12:50.159Z,80.00
2019-03-23T10:15:19.466Z,80.10
2019-03-23T10:17:48.759Z,80.20
2019-03-23T10:20:18.034Z,80.20
2019-03-23T10:22:47.285Z,80.00
2019-03-23T10:25:16.621Z,79.60
2019-03-23T10:27:45.883Z,79.40
2019-03-23T10:30:15.211Z,79.10
2019-03-23T10:32:44.482Z,78.90
2019-03-23T10:35:13.858Z,79.00
2019-03-23T10:37:43.157Z,78.70
2019-03-23T10:40:12.953Z,78.50
2019-03-23T10:42:43.394Z,78.40
2019-03-23T10:45:13.111Z,78.10
2019-03-23T10:47:42.444Z,78.20
2019-03-23T10:50:12.077Z,78.00
2019-03-23T10:52:41.317Z,78.00
2019-03-23T10:55:10.716Z,78.40
2019-03-23T10:57:40.082Z,78.10
2019-03-23T11:00:10.163Z,78.00
2019-03-23T11:02:39.485Z,77.80
2019-03-23T11:05:09.026Z,77.50
2019-03-23T11:07:38.433Z,77.30
2019-03-23T11:10:08.361Z,77.10
2019-03-23T11:12:37.805Z,77.20
2019-03-23T11:15:07.465Z,76.70
2019-03-23T11:17:36.720Z,76.80
2019-03-23T11:20:06.556Z,76.50
2019-03-23T11:22:35.793Z,76.80
2019-03-23T11:25:06.217Z,76.60
2019-03-23T11:27:35.565Z,76.50
2019-03-23T11:30:05.382Z,76.30
2019-03-23T11:32:34.657Z,76.10
2019-03-23T11:35:04.621Z,76.00
2019-03-23T11:37:35.765Z,75.90
2019-03-23T11:40:05.751Z,75.70
2019-03-23T11:42:35.120Z,76.00
2019-03-23T11:45:04.934Z,75.80
2019-03-23T11:47:34.174Z,75.80
2019-03-23T11:50:03.878Z,75.60
2019-03-23T11:52:33.145Z,75.70
2019-03-23T11:55:02.382Z,75.70
2019-03-23T11:57:31.665Z,76.00
2019-03-23T12:00:00.924Z,75.90
2019-03-23T12:02:30.189Z,75.60
2019-03-23T12:04:59.468Z,76.30
2019-03-23T12:07:28.732Z,75.60
2019-03-23T12:09:57.974Z,75.60
2019-03-23T12:12:28.592Z,75.50
2019-03-23T12:14:57.865Z,75.40
2019-03-23T12:17:27.121Z,75.50
2019-03-23T12:19:56.518Z,75.80
2019-03-23T12:22:25.787Z,75.70
2019-03-23T12:24:55.025Z,75.50
2019-03-23T12:27:24.803Z,75.60
2019-03-23T12:29:54.125Z,75.30
2019-03-23T12:32:23.409Z,75.30
2019-03-23T12:34:52.724Z,75.10
2019-03-23T12:37:22.037Z,75.20
2019-03-23T12:39:51.329Z,75.80
2019-03-23T12:42:20.813Z,75.00
2019-03-23T12:44:50.078Z,75.30
2019-03-23T12:47:19.414Z,75.30
2019-03-23T12:49:48.665Z,75.50
2019-03-23T12:52:17.936Z,75.50
2019-03-23T12:54:47.270Z,76.10
2019-03-23T12:57:16.673Z,75.90
2019-03-23T12:59:46.003Z,76.20
2019-03-23T13:02:15.273Z,76.60
2019-03-23T13:04:44.542Z,76.50
2019-03-23T13:07:13.804Z,76.80
2019-03-23T13:09:43.112Z,76.80
2019-03-23T13:12:12.676Z,76.60
2019-03-23T13:14:41.913Z,76.70
2019-03-23T13:17:11.182Z,76.00
2019-03-23T13:19:40.547Z,75.40
2019-03-23T13:22:09.821Z,76.20
2019-03-23T13:24:39.076Z,75.20
2019-03-23T13:27:08.354Z,75.60
2019-03-23T13:29:37.614Z,74.70
2019-03-23T13:32:06.925Z,75.00
2019-03-23T13:34:36.232Z,74.90
2019-03-23T13:37:05.465Z,73.90
2019-03-23T13:39:34.779Z,73.30
2019-03-23T13:42:04.065Z,73.60
2019-03-23T13:44:33.321Z,73.10
2019-03-23T13:47:02.581Z,72.90
2019-03-23T13:49:32.008Z,72.10
2019-03-23T13:52:01.905Z,72.50
2019-03-23T13:54:31.345Z,72.30
2019-03-23T13:57:00.641Z,72.00
2019-03-23T13:59:29.904Z,71.50
2019-03-23T14:01:59.137Z,70.90
2019-03-23T14:04:28.424Z,71.10
2019-03-23T14:06:57.733Z,69.90
2019-03-23T14:09:26.983Z,69.60
2019-03-23T14:11:56.265Z,69.20
2019-03-23T14:14:25.526Z,69.90
2019-03-23T14:16:54.773Z,69.60
2019-03-23T14:19:24.037Z,68.90
2019-03-23T14:21:53.349Z,68.50
2019-03-23T14:24:22.615Z,68.90
2019-03-23T14:26:51.877Z,68.30
2019-03-23T14:29:21.125Z,68.80
2019-03-23T14:31:50.393Z,68.20
2019-03-23T14:34:19.731Z,68.00
2019-03-23T14:36:48.973Z,68.30
2019-03-23T14:39:18.226Z,67.90
2019-03-23T14:41:47.585Z,68.20
2019-03-23T14:44:16.858Z,68.40
2019-03-23T14:46:46.128Z,68.00
2019-03-23T14:49:15.373Z,68.00
2019-03-23T14:51:44.658Z,67.60
2019-03-23T14:54:13.964Z,68.70
2019-03-23T14:56:43.241Z,67.90
2019-03-23T14:59:12.513Z,67.80
2019-03-23T15:01:41.750Z,68.00
2019-03-23T15:04:11.028Z,68.10
2019-03-23T15:06:40.301Z,68.40
2019-03-23T15:09:09.566Z,68.10
2019-03-23T15:11:38.831Z,67.70
2019-03-23T15:14:08.085Z,68.00
2019-03-23T15:16:37.342Z,68.30
2019-03-23T15:19:06.617Z,67.70
2019-03-23T15:21:36.009Z,67.70
2019-03-23T15:24:05.833Z,67.80
2019-03-23T15:26:35.099Z,67.60
2019-03-23T15:29:04.342Z,66.90
2019-03-23T15:31:33.605Z,66.60
2019-03-23T15:34:02.911Z,66.70
2019-03-23T15:36:32.161Z,66.30
2019-03-23T15:39:01.412Z,66.30
2019-03-23T15:41:30.719Z,66.40
2019-03-23T15:43:59.986Z,66.00
2019-03-23T15:46:29.233Z,66.30
2019-03-23T15:48:58.521Z,66.10
2019-03-23T15:51:27.847Z,66.60
2019-03-23T15:53:57.106Z,66.70
2019-03-23T15:56:26.547Z,66.20
2019-03-23T15:58:55.893Z,65.60
2019-03-23T16:01:25.129Z,65.80
2019-03-23T16:03:54.438Z,65.60
2019-03-23T16:06:23.706Z,65.40
2019-03-23T16:08:53.038Z,65.80
2019-03-23T16:11:23.353Z,65.30
2019-03-23T16:13:52.586Z,65.20
2019-03-23T16:16:21.916Z,65.10
2019-03-23T16:18:51.266Z,64.50
2019-03-23T16:21:20.556Z,63.90
2019-03-23T16:23:49.845Z,63.50
2019-03-23T16:26:21.565Z,63.40
2019-03-23T16:28:50.798Z,62.80
2019-03-23T16:31:20.125Z,63.40
2019-03-23T16:33:49.434Z,62.30
2019-03-23T16:36:18.723Z,62.50
2019-03-23T16:38:49.453Z,62.30
2019-03-23T16:41:18.813Z,61.90
2019-03-23T16:43:48.183Z,61.70
2019-03-23T16:46:17.426Z,62.20
2019-03-23T16:48:46.778Z,61.90
2019-03-23T16:51:16.065Z,61.40
2019-03-23T16:53:46.394Z,61.90
2019-03-23T16:56:18.714Z,62.00
2019-03-23T16:58:55.497Z,61.70
2019-03-23T17:01:22.095Z,61.20
2019-03-23T17:03:51.483Z,61.50
2019-03-23T17:06:20.837Z,61.30
2019-03-23T17:08:50.155Z,61.50
2019-03-23T17:11:19.427Z,61.70
2019-03-23T17:13:48.803Z,61.70
2019-03-23T17:16:18.045Z,62.00
2019-03-23T17:18:47.337Z,62.20
2019-03-23T17:21:16.721Z,62.40
2019-03-23T17:23:47.234Z,62.40
2019-03-23T17:26:17.209Z,62.80
2019-03-23T17:28:46.453Z,62.90
2019-03-23T17:31:15.718Z,62.40
2019-03-23T17:33:44.982Z,63.00
2019-03-23T17:36:14.345Z,63.50
2019-03-23T17:38:43.593Z,63.10
2019-03-23T17:41:12.933Z,63.40
2019-03-23T17:43:42.244Z,63.20
2019-03-23T17:46:11.746Z,63.40
2019-03-23T17:48:41.030Z,63.40
2019-03-23T17:51:10.335Z,63.60
2019-03-23T17:53:39.636Z,64.00
2019-03-23T17:56:08.902Z,64.20
2019-03-23T17:58:38.158Z,64.20
2019-03-23T18:01:19.298Z,64.50
2019-03-23T18:03:49.607Z,64.60
2019-03-23T18:06:20.952Z,65.10
2019-03-23T18:08:52.111Z,65.20
2019-03-23T18:11:22.554Z,65.40
2019-03-23T18:13:51.854Z,65.60
2019-03-23T18:16:21.093Z,65.80
2019-03-23T18:18:50.360Z,65.90
2019-03-23T18:21:19.661Z,66.80
2019-03-23T18:23:48.966Z,66.00
2019-03-23T18:26:18.345Z,66.00
2019-03-23T18:28:47.609Z,66.20
2019-03-23T18:31:16.842Z,66.30
2019-03-23T18:33:46.086Z,66.40
2019-03-23T18:36:15.393Z,66.60
2019-03-23T18:38:44.705Z,66.90
2019-03-23T18:41:14.094Z,67.10
2019-03-23T18:43:43.405Z,66.80
2019-03-23T18:46:12.750Z,67.50
2019-03-23T18:48:45.013Z,67.50
2019-03-23T18:51:14.493Z,67.50
2019-03-23T18:53:43.721Z,68.10
2019-03-23T18:56:13.006Z,69.00
2019-03-23T18:58:42.338Z,68.40
2019-03-23T19:01:11.702Z,68.50
2019-03-23T19:03:41.029Z,68.80
2019-03-23T19:06:10.770Z,68.80
2019-03-23T19:08:42.391Z,69.00
2019-03-23T19:11:11.379Z,69.20
2019-03-23T19:13:40.694Z,69.20
2019-03-23T19:16:09.997Z,69.50
2019-03-23T19:18:39.255Z,69.40
2019-03-23T19:21:08.537Z,69.60
2019-03-23T19:23:37.798Z,69.60
2019-03-23T19:26:07.122Z,69.70
2019-03-23T19:28:36.415Z,69.90
2019-03-23T19:31:05.723Z,70.00
2019-03-23T19:33:34.980Z,69.90
2019-03-23T19:36:04.323Z,69.90
2019-03-23T19:38:33.577Z,70.10
2019-03-23T19:41:02.914Z,70.00
2019-03-23T19:43:32.201Z,70.30
2019-03-23T19:46:01.469Z,70.40
2019-03-23T19:48:30.737Z,70.10
2019-03-23T19:51:00.007Z,70.20
2019-03-23T19:53:29.261Z,70.40
2019-03-23T19:55:58.535Z,70.10
2019-03-23T19:58:27.832Z,69.90
2019-03-23T20:00:57.113Z,70.50
2019-03-23T20:03:26.397Z,70.30
2019-03-23T20:05:55.660Z,70.50
2019-03-23T20:08:25.655Z,70.50
2019-03-23T20:10:55.085Z,70.60
2019-03-23T20:13:24.369Z,70.70
2019-03-23T20:15:53.634Z,70.70
2019-03-23T20:18:23.217Z,70.90
2019-03-23T20:20:52.474Z,70.80
2019-03-23T20:23:21.716Z,70.80
2019-03-23T20:25:50.954Z,71.00
2019-03-23T20:28:20.253Z,70.90
2019-03-23T20:30:49.508Z,71.00
2019-03-23T20:33:19.641Z,71.10
2019-03-23T20:35:49.229Z,71.10
2019-03-23T20:38:18.469Z,71.10
2019-03-23T20:40:47.737Z,71.30
2019-03-23T20:43:17.043Z,71.20
2019-03-23T20:45:46.461Z,71.30
2019-03-23T20:48:15.904Z,71.20
2019-03-23T20:50:45.223Z,71.30
2019-03-23T20:53:16.142Z,71.30
2019-03-23T20:55:45.401Z,71.30
2019-03-23T20:58:14.697Z,71.30
2019-03-23T21:00:44.087Z,71.20
2019-03-23T21:03:13.463Z,71.20
2019-03-23T21:05:42.817Z,71.30
2019-03-23T21:08:12.119Z,71.40
2019-03-23T21:10:41.377Z,71.30
2019-03-23T21:13:10.643Z,71.50
2019-03-23T21:15:39.937Z,71.50
2019-03-23T21:18:09.208Z,71.50
2019-03-23T21:20:38.493Z,71.60
2019-03-23T21:23:07.738Z,71.60
2019-03-23T21:25:37.243Z,71.70
2019-03-23T21:28:06.751Z,71.70
2019-03-23T21:30:36.082Z,71.90
2019-03-23T21:33:05.602Z,72.10
2019-03-23T21:35:34.862Z,71.90
2019-03-23T21:38:04.290Z,71.90
2019-03-23T21:40:35.077Z,72.20
2019-03-23T21:43:04.679Z,72.00
2019-03-23T21:45:33.980Z,72.80
2019-03-23T21:48:03.233Z,72.10
2019-03-23T21:50:32.501Z,72.20
2019-03-23T21:53:01.769Z,72.20
2019-03-23T21:55:31.071Z,72.90
2019-03-23T21:58:00.365Z,72.30
2019-03-23T22:00:34.384Z,72.50
2019-03-23T22:03:04.033Z,72.40
2019-03-23T22:05:33.469Z,72.30
2019-03-23T22:08:02.710Z,72.40
2019-03-23T22:10:32.154Z,72.40
2019-03-23T22:13:01.490Z,72.50
2019-03-23T22:15:34.608Z,72.30
2019-03-23T22:18:04.897Z,72.10
2019-03-23T22:20:34.299Z,71.60
2019-03-23T22:23:03.617Z,71.90
2019-03-23T22:25:32.903Z,73.00
2019-03-23T22:28:02.182Z,73.00
2019-03-23T22:30:31.484Z,73.10
2019-03-23T22:33:00.881Z,73.10
2019-03-23T22:35:30.206Z,73.30
2019-03-23T22:37:59.433Z,73.30
2019-03-23T22:40:28.717Z,73.50
2019-03-23T22:42:58.123Z,73.60
2019-03-23T22:45:27.406Z,73.60
2019-03-23T22:47:56.692Z,73.60
2019-03-23T22:50:26.019Z,73.90
2019-03-23T22:52:55.346Z,73.90
2019-03-23T22:55:24.968Z,74.10
2019-03-23T22:57:59.477Z,74.00
2019-03-23T23:00:41.346Z,73.60
2019-03-23T23:03:11.194Z,74.20
2019-03-23T23:05:40.405Z,74.40
2019-03-23T23:08:09.666Z,74.40
2019-03-23T23:10:38.937Z,74.60
2019-03-23T23:13:08.249Z,74.70
2019-03-23T23:15:37.600Z,74.60
2019-03-23T23:18:07.159Z,74.70
2019-03-23T23:20:36.859Z,74.70
2019-03-23T23:23:06.373Z,75.00
2019-03-23T23:25:35.749Z,74.90
2019-03-23T23:28:05.087Z,74.90
2019-03-23T23:30:34.429Z,74.80
2019-03-23T23:33:03.882Z,74.50
2019-03-23T23:35:33.533Z,74.20
2019-03-23T23:38:06.521Z,73.60
2019-03-23T23:40:35.787Z,73.80
2019-03-23T23:43:05.205Z,74.20
2019-03-23T23:45:34.465Z,74.20
2019-03-23T23:48:03.721Z,74.10
2019-03-23T23:50:33.006Z,74.20
2019-03-23T23:53:02.266Z,74.40
2019-03-23T23:55:31.498Z,74.20
2019-03-23T23:58:00.762Z,74.30
